sensor_id;sensor_type;location;lat;lon;timestamp;P1;durP1;ratioP1;P2;durP2;ratioP2
49978;SDS011;35869;50.990;6.962;2023-02-15T00:02:40;31.05;;;18.85;;
49978;SDS011;35869;50.990;6.962;2023-02-15T00:07:40;26.38;;;17.63;;
49978;SDS011;35869;50.990;6.962;2023-02-15T00:12:40;31.92;;;18.88;;
49978;SDS011;35869;50.990;6.962;2023-02-15T00:17:41;30.02;;;19.92;;
49978;SDS011;35869;50.990;6.962;2023-02-15T00:22:41;35.38;;;20.65;;
49978;SDS011;35869;50.990;6.962;2023-02-15T00:27:41;30.20;;;19.77;;
49978;SDS011;35869;50.990;6.962;2023-02-15T00:32:41;31.48;;;19.75;;
49978;SDS011;35869;50.990;6.962;2023-02-15T00:37:41;26.98;;;17.55;;
49978;SDS011;35869;50.990;6.962;2023-02-15T00:42:42;28.35;;;18.73;;
49978;SDS011;35869;50.990;6.962;2023-02-15T00:47:42;30.98;;;18.90;;
49978;SDS011;35869;50.990;6.962;2023-02-15T00:52:42;33.70;;;17.70;;
49978;SDS011;35869;50.990;6.962;2023-02-15T00:57:42;31.40;;;19.02;;
49978;SDS011;35869;50.990;6.962;2023-02-15T01:02:42;30.13;;;20.33;;
49978;SDS011;35869;50.990;6.962;2023-02-15T01:07:43;29.20;;;20.15;;
49978;SDS011;35869;50.990;6.962;2023-02-15T01:12:43;35.08;;;21.50;;
49978;SDS011;35869;50.990;6.962;2023-02-15T01:17:43;35.30;;;19.03;;
49978;SDS011;35869;50.990;6.962;2023-02-15T01:22:43;32.60;;;19.88;;
49978;SDS011;35869;50.990;6.962;2023-02-15T01:27:44;34.17;;;18.88;;
49978;SDS011;35869;50.990;6.962;2023-02-15T01:32:45;37.20;;;20.90;;
49978;SDS011;35869;50.990;6.962;2023-02-15T01:37:45;32.13;;;18.42;;
49978;SDS011;35869;50.990;6.962;2023-02-15T01:42:45;34.72;;;20.08;;
49978;SDS011;35869;50.990;6.962;2023-02-15T01:47:48;31.35;;;19.73;;
49978;SDS011;35869;50.990;6.962;2023-02-15T01:57:58;33.00;;;19.38;;
49978;SDS011;35869;50.990;6.962;2023-02-15T02:02:59;31.10;;;19.73;;
49978;SDS011;35869;50.990;6.962;2023-02-15T02:08:01;31.60;;;19.33;;
49978;SDS011;35869;50.990;6.962;2023-02-15T02:13:03;30.75;;;19.65;;
49978;SDS011;35869;50.990;6.962;2023-02-15T02:18:15;34.17;;;19.77;;
49978;SDS011;35869;50.990;6.962;2023-02-15T02:23:49;31.60;;;19.05;;
49978;SDS011;35869;50.990;6.962;2023-02-15T02:34:25;29.10;;;17.83;;
49978;SDS011;35869;50.990;6.962;2023-02-15T02:39:44;29.15;;;19.52;;
49978;SDS011;35869;50.990;6.962;2023-02-15T02:44:54;31.55;;;18.92;;
49978;SDS011;35869;50.990;6.962;2023-02-15T02:50:04;33.22;;;19.50;;
49978;SDS011;35869;50.990;6.962;2023-02-15T02:55:19;27.73;;;16.95;;
49978;SDS011;35869;50.990;6.962;2023-02-15T03:00:38;31.52;;;19.85;;
49978;SDS011;35869;50.990;6.962;2023-02-15T03:05:44;31.17;;;19.02;;
49978;SDS011;35869;50.990;6.962;2023-02-15T03:10:47;28.17;;;17.40;;
49978;SDS011;35869;50.990;6.962;2023-02-15T03:15:48;29.63;;;17.63;;
49978;SDS011;35869;50.990;6.962;2023-02-15T03:20:51;30.73;;;17.48;;
49978;SDS011;35869;50.990;6.962;2023-02-15T03:25:53;30.20;;;18.42;;
49978;SDS011;35869;50.990;6.962;2023-02-15T03:31:03;33.15;;;18.50;;
49978;SDS011;35869;50.990;6.962;2023-02-15T03:36:09;28.50;;;18.60;;
49978;SDS011;35869;50.990;6.962;2023-02-15T03:41:18;31.42;;;18.02;;
49978;SDS011;35869;50.990;6.962;2023-02-15T03:46:30;27.77;;;16.98;;
49978;SDS011;35869;50.990;6.962;2023-02-15T03:51:36;30.30;;;16.98;;
49978;SDS011;35869;50.990;6.962;2023-02-15T03:56:40;36.47;;;18.20;;
49978;SDS011;35869;50.990;6.962;2023-02-15T04:01:47;24.80;;;16.60;;
49978;SDS011;35869;50.990;6.962;2023-02-15T04:06:52;28.42;;;17.30;;
49978;SDS011;35869;50.990;6.962;2023-02-15T04:11:52;32.20;;;17.88;;
49978;SDS011;35869;50.990;6.962;2023-02-15T04:16:53;27.70;;;16.00;;
49978;SDS011;35869;50.990;6.962;2023-02-15T04:21:53;31.73;;;19.00;;
49978;SDS011;35869;50.990;6.962;2023-02-15T04:26:53;24.98;;;17.23;;
49978;SDS011;35869;50.990;6.962;2023-02-15T04:31:54;27.25;;;16.70;;
49978;SDS011;35869;50.990;6.962;2023-02-15T04:36:56;31.05;;;17.27;;
49978;SDS011;35869;50.990;6.962;2023-02-15T04:41:56;32.25;;;17.60;;
49978;SDS011;35869;50.990;6.962;2023-02-15T04:46:56;30.23;;;17.20;;
49978;SDS011;35869;50.990;6.962;2023-02-15T04:51:57;31.58;;;18.15;;
49978;SDS011;35869;50.990;6.962;2023-02-15T04:56:57;29.98;;;18.45;;
49978;SDS011;35869;50.990;6.962;2023-02-15T05:01:57;28.58;;;16.52;;
49978;SDS011;35869;50.990;6.962;2023-02-15T05:06:57;28.77;;;18.60;;
49978;SDS011;35869;50.990;6.962;2023-02-15T05:11:57;26.60;;;17.35;;
49978;SDS011;35869;50.990;6.962;2023-02-15T05:16:58;30.98;;;18.20;;
49978;SDS011;35869;50.990;6.962;2023-02-15T05:21:58;27.30;;;15.57;;
49978;SDS011;35869;50.990;6.962;2023-02-15T05:26:58;27.10;;;17.25;;
49978;SDS011;35869;50.990;6.962;2023-02-15T05:31:58;30.95;;;17.52;;
49978;SDS011;35869;50.990;6.962;2023-02-15T05:36:59;27.27;;;16.88;;
49978;SDS011;35869;50.990;6.962;2023-02-15T05:41:59;28.88;;;17.75;;
49978;SDS011;35869;50.990;6.962;2023-02-15T05:47:00;29.10;;;16.00;;
49978;SDS011;35869;50.990;6.962;2023-02-15T05:52:00;32.15;;;16.98;;
49978;SDS011;35869;50.990;6.962;2023-02-15T05:57:00;27.38;;;17.83;;
49978;SDS011;35869;50.990;6.962;2023-02-15T06:02:00;32.47;;;18.60;;
49978;SDS011;35869;50.990;6.962;2023-02-15T06:07:01;28.45;;;17.67;;
49978;SDS011;35869;50.990;6.962;2023-02-15T06:12:01;29.27;;;16.10;;
49978;SDS011;35869;50.990;6.962;2023-02-15T06:17:01;30.92;;;16.95;;
49978;SDS011;35869;50.990;6.962;2023-02-15T06:22:01;28.75;;;17.20;;
49978;SDS011;35869;50.990;6.962;2023-02-15T06:27:02;23.00;;;15.27;;
49978;SDS011;35869;50.990;6.962;2023-02-15T06:32:02;27.85;;;17.20;;
49978;SDS011;35869;50.990;6.962;2023-02-15T06:37:02;25.50;;;16.93;;
49978;SDS011;35869;50.990;6.962;2023-02-15T06:42:03;23.67;;;15.77;;
49978;SDS011;35869;50.990;6.962;2023-02-15T06:47:03;29.08;;;16.40;;
49978;SDS011;35869;50.990;6.962;2023-02-15T06:52:03;24.23;;;16.10;;
49978;SDS011;35869;50.990;6.962;2023-02-15T06:57:04;24.58;;;15.18;;
49978;SDS011;35869;50.990;6.962;2023-02-15T07:02:04;28.88;;;15.85;;
49978;SDS011;35869;50.990;6.962;2023-02-15T07:07:08;27.60;;;15.93;;
49978;SDS011;35869;50.990;6.962;2023-02-15T07:12:09;26.23;;;15.40;;
49978;SDS011;35869;50.990;6.962;2023-02-15T07:17:09;32.22;;;17.40;;
49978;SDS011;35869;50.990;6.962;2023-02-15T07:22:09;25.15;;;16.00;;
49978;SDS011;35869;50.990;6.962;2023-02-15T07:27:10;25.15;;;15.75;;
49978;SDS011;35869;50.990;6.962;2023-02-15T07:32:10;26.48;;;15.57;;
49978;SDS011;35869;50.990;6.962;2023-02-15T07:37:10;26.05;;;15.48;;
49978;SDS011;35869;50.990;6.962;2023-02-15T07:42:10;33.03;;;14.48;;
49978;SDS011;35869;50.990;6.962;2023-02-15T07:47:10;24.60;;;15.20;;
49978;SDS011;35869;50.990;6.962;2023-02-15T07:52:11;24.80;;;14.18;;
49978;SDS011;35869;50.990;6.962;2023-02-15T07:57:11;25.50;;;15.05;;
49978;SDS011;35869;50.990;6.962;2023-02-15T08:02:14;24.42;;;14.68;;
49978;SDS011;35869;50.990;6.962;2023-02-15T08:07:14;23.90;;;14.63;;
49978;SDS011;35869;50.990;6.962;2023-02-15T08:12:15;24.85;;;14.80;;
49978;SDS011;35869;50.990;6.962;2023-02-15T08:17:15;24.48;;;14.40;;
49978;SDS011;35869;50.990;6.962;2023-02-15T08:22:15;22.00;;;13.32;;
49978;SDS011;35869;50.990;6.962;2023-02-15T08:27:15;18.88;;;13.15;;
49978;SDS011;35869;50.990;6.962;2023-02-15T08:32:15;22.08;;;12.93;;
49978;SDS011;35869;50.990;6.962;2023-02-15T08:37:16;19.42;;;13.02;;
49978;SDS011;35869;50.990;6.962;2023-02-15T08:42:16;23.88;;;13.05;;
49978;SDS011;35869;50.990;6.962;2023-02-15T08:47:16;19.67;;;12.40;;
49978;SDS011;35869;50.990;6.962;2023-02-15T08:52:16;19.95;;;12.40;;
49978;SDS011;35869;50.990;6.962;2023-02-15T08:57:17;22.73;;;13.60;;
49978;SDS011;35869;50.990;6.962;2023-02-15T09:02:17;18.83;;;13.57;;
49978;SDS011;35869;50.990;6.962;2023-02-15T09:07:17;20.60;;;13.93;;
49978;SDS011;35869;50.990;6.962;2023-02-15T09:12:17;23.65;;;16.63;;
49978;SDS011;35869;50.990;6.962;2023-02-15T09:17:17;19.90;;;12.30;;
49978;SDS011;35869;50.990;6.962;2023-02-15T09:22:18;18.92;;;12.50;;
49978;SDS011;35869;50.990;6.962;2023-02-15T09:27:18;17.42;;;11.20;;
49978;SDS011;35869;50.990;6.962;2023-02-15T09:32:18;17.23;;;11.18;;
49978;SDS011;35869;50.990;6.962;2023-02-15T09:37:18;15.75;;;10.85;;
49978;SDS011;35869;50.990;6.962;2023-02-15T09:48:05;16.75;;;10.23;;
49978;SDS011;35869;50.990;6.962;2023-02-15T09:58:52;16.48;;;10.68;;
49978;SDS011;35869;50.990;6.962;2023-02-15T10:09:39;13.80;;;9.65;;
49978;SDS011;35869;50.990;6.962;2023-02-15T10:31:28;13.07;;;9.00;;
49978;SDS011;35869;50.990;6.962;2023-02-15T10:42:19;15.45;;;9.82;;
49978;SDS011;35869;50.990;6.962;2023-02-15T10:47:31;14.23;;;10.13;;
49978;SDS011;35869;50.990;6.962;2023-02-15T10:58:38;14.20;;;9.05;;
49978;SDS011;35869;50.990;6.962;2023-02-15T11:08:53;15.68;;;9.65;;
49978;SDS011;35869;50.990;6.962;2023-02-15T11:14:01;15.75;;;9.98;;
49978;SDS011;35869;50.990;6.962;2023-02-15T11:19:12;13.07;;;8.68;;
49978;SDS011;35869;50.990;6.962;2023-02-15T11:24:19;14.30;;;8.70;;
49978;SDS011;35869;50.990;6.962;2023-02-15T11:39:31;14.40;;;9.27;;
49978;SDS011;35869;50.990;6.962;2023-02-15T11:44:55;12.82;;;8.20;;
49978;SDS011;35869;50.990;6.962;2023-02-15T11:50:01;11.88;;;8.75;;
49978;SDS011;35869;50.990;6.962;2023-02-15T11:55:02;11.65;;;9.02;;
49978;SDS011;35869;50.990;6.962;2023-02-15T12:00:18;12.60;;;10.20;;
49978;SDS011;35869;50.990;6.962;2023-02-15T12:05:29;13.27;;;8.48;;
49978;SDS011;35869;50.990;6.962;2023-02-15T12:10:39;14.47;;;9.43;;
49978;SDS011;35869;50.990;6.962;2023-02-15T12:15:45;12.13;;;8.20;;
49978;SDS011;35869;50.990;6.962;2023-02-15T12:20:48;12.75;;;8.77;;
49978;SDS011;35869;50.990;6.962;2023-02-15T12:25:52;11.85;;;8.70;;
49978;SDS011;35869;50.990;6.962;2023-02-15T12:30:54;14.85;;;9.23;;
49978;SDS011;35869;50.990;6.962;2023-02-15T12:36:40;13.35;;;9.43;;
49978;SDS011;35869;50.990;6.962;2023-02-15T12:46:28;11.85;;;8.35;;
49978;SDS011;35869;50.990;6.962;2023-02-15T12:51:29;13.48;;;8.18;;
49978;SDS011;35869;50.990;6.962;2023-02-15T12:56:29;15.18;;;8.95;;
49978;SDS011;35869;50.990;6.962;2023-02-15T13:01:29;13.77;;;10.15;;
49978;SDS011;35869;50.990;6.962;2023-02-15T13:06:33;15.73;;;8.55;;
49978;SDS011;35869;50.990;6.962;2023-02-15T13:11:35;11.07;;;8.50;;
49978;SDS011;35869;50.990;6.962;2023-02-15T13:16:36;16.58;;;8.93;;
49978;SDS011;35869;50.990;6.962;2023-02-15T13:21:40;12.50;;;9.40;;
49978;SDS011;35869;50.990;6.962;2023-02-15T13:26:43;13.27;;;9.15;;
49978;SDS011;35869;50.990;6.962;2023-02-15T13:31:46;14.35;;;8.95;;
49978;SDS011;35869;50.990;6.962;2023-02-15T13:57:39;11.73;;;8.45;;
49978;SDS011;35869;50.990;6.962;2023-02-15T14:03:03;12.50;;;9.77;;
49978;SDS011;35869;50.990;6.962;2023-02-15T14:13:49;12.13;;;8.50;;
49978;SDS011;35869;50.990;6.962;2023-02-15T14:18:55;12.65;;;9.18;;
49978;SDS011;35869;50.990;6.962;2023-02-15T14:34:48;14.02;;;10.05;;
49978;SDS011;35869;50.990;6.962;2023-02-15T14:40:00;13.32;;;9.20;;
49978;SDS011;35869;50.990;6.962;2023-02-15T14:45:04;13.40;;;8.80;;
49978;SDS011;35869;50.990;6.962;2023-02-15T14:55:36;11.63;;;9.13;;
49978;SDS011;35869;50.990;6.962;2023-02-15T15:00:37;12.82;;;9.77;;
49978;SDS011;35869;50.990;6.962;2023-02-15T15:05:46;12.38;;;8.52;;
49978;SDS011;35869;50.990;6.962;2023-02-15T15:10:50;12.57;;;8.35;;
49978;SDS011;35869;50.990;6.962;2023-02-15T15:15:50;12.03;;;8.57;;
49978;SDS011;35869;50.990;6.962;2023-02-15T15:20:52;13.85;;;8.82;;
49978;SDS011;35869;50.990;6.962;2023-02-15T15:25:57;11.30;;;8.80;;
49978;SDS011;35869;50.990;6.962;2023-02-15T15:36:49;9.98;;;7.82;;
49978;SDS011;35869;50.990;6.962;2023-02-15T15:48:01;13.23;;;9.90;;
49978;SDS011;35869;50.990;6.962;2023-02-15T15:53:14;13.38;;;8.43;;
49978;SDS011;35869;50.990;6.962;2023-02-15T15:58:20;12.32;;;9.20;;
49978;SDS011;35869;50.990;6.962;2023-02-15T16:03:23;12.02;;;9.20;;
49978;SDS011;35869;50.990;6.962;2023-02-15T16:08:32;15.38;;;9.45;;
49978;SDS011;35869;50.990;6.962;2023-02-15T16:13:35;13.32;;;9.20;;
49978;SDS011;35869;50.990;6.962;2023-02-15T16:18:36;11.83;;;9.03;;
49978;SDS011;35869;50.990;6.962;2023-02-15T16:29:16;14.05;;;9.55;;
49978;SDS011;35869;50.990;6.962;2023-02-15T16:34:18;13.43;;;9.32;;
49978;SDS011;35869;50.990;6.962;2023-02-15T16:39:19;14.77;;;9.40;;
49978;SDS011;35869;50.990;6.962;2023-02-15T16:44:20;16.30;;;9.80;;
49978;SDS011;35869;50.990;6.962;2023-02-15T16:49:21;20.17;;;10.50;;
49978;SDS011;35869;50.990;6.962;2023-02-15T16:54:24;14.60;;;9.82;;
49978;SDS011;35869;50.990;6.962;2023-02-15T17:04:39;14.98;;;9.85;;
49978;SDS011;35869;50.990;6.962;2023-02-15T17:09:50;18.98;;;12.07;;
49978;SDS011;35869;50.990;6.962;2023-02-15T17:14:54;21.70;;;11.77;;
49978;SDS011;35869;50.990;6.962;2023-02-15T17:19:55;16.10;;;11.60;;
49978;SDS011;35869;50.990;6.962;2023-02-15T17:24:59;15.60;;;11.43;;
49978;SDS011;35869;50.990;6.962;2023-02-15T17:30:01;18.05;;;11.20;;
49978;SDS011;35869;50.990;6.962;2023-02-15T17:35:05;13.50;;;10.48;;
49978;SDS011;35869;50.990;6.962;2023-02-15T17:40:20;14.10;;;10.25;;
49978;SDS011;35869;50.990;6.962;2023-02-15T17:45:21;14.75;;;11.20;;
49978;SDS011;35869;50.990;6.962;2023-02-15T17:50:25;16.45;;;10.43;;
49978;SDS011;35869;50.990;6.962;2023-02-15T17:55:26;11.40;;;8.98;;
49978;SDS011;35869;50.990;6.962;2023-02-15T18:00:28;12.50;;;9.10;;
49978;SDS011;35869;50.990;6.962;2023-02-15T18:05:29;14.02;;;10.65;;
49978;SDS011;35869;50.990;6.962;2023-02-15T18:10:29;14.50;;;9.93;;
49978;SDS011;35869;50.990;6.962;2023-02-15T18:15:30;18.05;;;10.70;;
49978;SDS011;35869;50.990;6.962;2023-02-15T18:20:32;11.20;;;9.70;;
49978;SDS011;35869;50.990;6.962;2023-02-15T18:25:35;15.32;;;10.15;;
49978;SDS011;35869;50.990;6.962;2023-02-15T18:30:35;16.38;;;10.82;;
49978;SDS011;35869;50.990;6.962;2023-02-15T18:35:37;17.92;;;10.43;;
49978;SDS011;35869;50.990;6.962;2023-02-15T18:40:38;16.92;;;11.07;;
49978;SDS011;35869;50.990;6.962;2023-02-15T18:45:38;18.40;;;10.70;;
49978;SDS011;35869;50.990;6.962;2023-02-15T18:50:38;15.48;;;10.20;;
49978;SDS011;35869;50.990;6.962;2023-02-15T18:55:38;18.58;;;10.93;;
49978;SDS011;35869;50.990;6.962;2023-02-15T19:00:39;17.40;;;11.10;;
49978;SDS011;35869;50.990;6.962;2023-02-15T19:05:40;16.67;;;10.77;;
49978;SDS011;35869;50.990;6.962;2023-02-15T19:10:42;14.30;;;10.43;;
49978;SDS011;35869;50.990;6.962;2023-02-15T19:15:43;13.57;;;10.00;;
49978;SDS011;35869;50.990;6.962;2023-02-15T19:20:44;17.23;;;11.48;;
49978;SDS011;35869;50.990;6.962;2023-02-15T19:25:46;14.75;;;10.32;;
49978;SDS011;35869;50.990;6.962;2023-02-15T19:30:48;18.10;;;10.25;;
49978;SDS011;35869;50.990;6.962;2023-02-15T19:35:48;18.75;;;11.45;;
49978;SDS011;35869;50.990;6.962;2023-02-15T19:40:52;12.77;;;9.35;;
49978;SDS011;35869;50.990;6.962;2023-02-15T19:45:58;16.70;;;11.00;;
49978;SDS011;35869;50.990;6.962;2023-02-15T19:50:58;17.45;;;12.07;;
49978;SDS011;35869;50.990;6.962;2023-02-15T19:55:58;17.63;;;12.80;;
49978;SDS011;35869;50.990;6.962;2023-02-15T20:00:59;17.05;;;12.82;;
49978;SDS011;35869;50.990;6.962;2023-02-15T20:05:59;15.93;;;10.65;;
49978;SDS011;35869;50.990;6.962;2023-02-15T20:11:00;14.45;;;10.93;;
49978;SDS011;35869;50.990;6.962;2023-02-15T20:16:00;20.05;;;11.50;;
49978;SDS011;35869;50.990;6.962;2023-02-15T20:21:00;16.40;;;11.07;;
49978;SDS011;35869;50.990;6.962;2023-02-15T20:26:09;16.58;;;11.90;;
49978;SDS011;35869;50.990;6.962;2023-02-15T20:31:16;16.13;;;10.48;;
49978;SDS011;35869;50.990;6.962;2023-02-15T20:36:18;17.05;;;11.32;;
49978;SDS011;35869;50.990;6.962;2023-02-15T20:41:20;16.10;;;12.10;;
49978;SDS011;35869;50.990;6.962;2023-02-15T20:46:20;15.88;;;11.65;;
49978;SDS011;35869;50.990;6.962;2023-02-15T20:51:20;18.17;;;12.02;;
49978;SDS011;35869;50.990;6.962;2023-02-15T20:56:22;18.83;;;11.73;;
49978;SDS011;35869;50.990;6.962;2023-02-15T21:01:23;17.70;;;12.65;;
49978;SDS011;35869;50.990;6.962;2023-02-15T21:06:23;16.70;;;12.20;;
49978;SDS011;35869;50.990;6.962;2023-02-15T21:11:23;18.00;;;12.05;;
49978;SDS011;35869;50.990;6.962;2023-02-15T21:16:23;18.98;;;12.15;;
49978;SDS011;35869;50.990;6.962;2023-02-15T21:21:24;19.35;;;12.57;;
49978;SDS011;35869;50.990;6.962;2023-02-15T21:26:24;18.15;;;11.52;;
49978;SDS011;35869;50.990;6.962;2023-02-15T21:31:24;20.55;;;14.07;;
49978;SDS011;35869;50.990;6.962;2023-02-15T21:36:24;16.25;;;12.82;;
49978;SDS011;35869;50.990;6.962;2023-02-15T21:41:26;21.00;;;14.50;;
49978;SDS011;35869;50.990;6.962;2023-02-15T21:51:28;18.05;;;12.73;;
49978;SDS011;35869;50.990;6.962;2023-02-15T21:56:29;20.58;;;13.20;;
49978;SDS011;35869;50.990;6.962;2023-02-15T22:01:29;17.48;;;11.95;;
49978;SDS011;35869;50.990;6.962;2023-02-15T22:06:29;20.38;;;14.23;;
49978;SDS011;35869;50.990;6.962;2023-02-15T22:11:30;19.67;;;14.23;;
49978;SDS011;35869;50.990;6.962;2023-02-15T22:16:30;20.30;;;13.25;;
49978;SDS011;35869;50.990;6.962;2023-02-15T22:21:30;21.40;;;14.13;;
49978;SDS011;35869;50.990;6.962;2023-02-15T22:26:30;23.67;;;13.48;;
49978;SDS011;35869;50.990;6.962;2023-02-15T22:31:31;20.07;;;14.23;;
49978;SDS011;35869;50.990;6.962;2023-02-15T22:36:31;20.98;;;14.70;;
49978;SDS011;35869;50.990;6.962;2023-02-15T22:41:31;22.63;;;15.33;;
49978;SDS011;35869;50.990;6.962;2023-02-15T22:46:31;22.02;;;14.55;;
49978;SDS011;35869;50.990;6.962;2023-02-15T22:51:32;25.47;;;14.93;;
49978;SDS011;35869;50.990;6.962;2023-02-15T22:56:36;18.88;;;15.15;;
49978;SDS011;35869;50.990;6.962;2023-02-15T23:01:39;21.88;;;15.50;;
49978;SDS011;35869;50.990;6.962;2023-02-15T23:06:39;23.80;;;14.50;;
49978;SDS011;35869;50.990;6.962;2023-02-15T23:11:40;26.23;;;16.88;;
49978;SDS011;35869;50.990;6.962;2023-02-15T23:16:41;21.65;;;13.98;;
49978;SDS011;35869;50.990;6.962;2023-02-15T23:21:41;23.33;;;15.13;;
49978;SDS011;35869;50.990;6.962;2023-02-15T23:26:41;23.30;;;16.20;;
49978;SDS011;35869;50.990;6.962;2023-02-15T23:31:42;20.60;;;15.55;;
49978;SDS011;35869;50.990;6.962;2023-02-15T23:36:44;22.85;;;14.52;;
49978;SDS011;35869;50.990;6.962;2023-02-15T23:41:45;24.27;;;15.52;;
49978;SDS011;35869;50.990;6.962;2023-02-15T23:46:46;30.40;;;16.13;;
49978;SDS011;35869;50.990;6.962;2023-02-15T23:51:49;26.77;;;15.48;;
49978;SDS011;35869;50.990;6.962;2023-02-15T23:56:52;24.23;;;16.90;;
